Time;durP1;ratioP1;P1;durP2;ratioP2;P2;SDS_P1;SDS_P2;PMS_P1;PMS_P2;Temp;Humidity;BMP_temperature;BMP_pressure;BME280_temperature;BME280_humidity;BME280_pressure;Samples;Min_cycle;Max_cycle;Signal;HPM_P1;HPM_P2
2021/09/17 00:01:34;;;;;;;24.87;17.47;;;17.30;76.00;;;;;;4979435;28;20175;-86
2021/09/17 00:04:00;;;;;;;21.70;15.93;;;17.40;76.00;;;;;;4979798;28;20207;-86
2021/09/17 00:06:26;;;;;;;21.90;16.83;;;17.50;75.80;;;;;;4979584;28;20199;-86
2021/09/17 00:08:51;;;;;;;24.83;17.70;;;17.40;75.90;;;;;;4980035;28;20250;-86
2021/09/17 00:11:17;;;;;;;22.70;16.93;;;17.40;76.00;;;;;;4984106;28;20274;-84
2021/09/17 00:13:43;;;;;;;22.70;17.33;;;17.40;76.00;;;;;;4983043;28;20200;-85
2021/09/17 00:16:09;;;;;;;22.80;16.53;;;17.30;76.40;;;;;;4986599;28;20218;-85
2021/09/17 00:18:35;;;;;;;23.87;16.93;;;17.20;76.60;;;;;;4988036;28;20408;-86
2021/09/17 00:21:00;;;;;;;20.60;15.70;;;17.30;76.70;;;;;;4986763;28;20172;-86
2021/09/17 00:23:26;;;;;;;21.17;16.60;;;17.30;76.40;;;;;;4979917;28;20243;-86
2021/09/17 00:25:52;;;;;;;20.67;14.87;;;17.40;76.00;;;;;;4978539;28;20191;-85
2021/09/17 00:28:18;;;;;;;20.73;15.33;;;17.40;75.90;;;;;;4977998;28;20435;-85
2021/09/17 00:30:43;;;;;;;29.87;16.70;;;17.20;76.40;;;;;;4979499;28;20191;-86
2021/09/17 00:33:09;;;;;;;25.57;16.77;;;17.20;76.80;;;;;;4961559;28;20471;-85
2021/09/17 00:35:35;;;;;;;23.57;16.97;;;17.20;76.90;;;;;;4977938;28;20187;-85
2021/09/17 00:38:03;;;;;;;18.80;15.40;;;17.20;77.00;;;;;;4980169;28;20228;-85
2021/09/17 00:40:29;;;;;;;21.67;15.95;;;17.20;76.80;;;;;;4978731;28;20732;-85
2021/09/17 00:42:55;;;;;;;24.00;16.00;;;17.30;76.70;;;;;;4977726;28;20707;-86
2021/09/17 00:45:21;;;;;;;22.73;16.10;;;17.30;76.30;;;;;;4977887;28;20218;-86
2021/09/17 00:47:47;;;;;;;21.27;15.65;;;17.40;75.90;;;;;;4977608;28;20419;-86
2021/09/17 00:50:16;;;;;;;17.00;14.10;;;17.30;75.70;;;;;;4977899;28;20184;-86
2021/09/17 00:52:43;;;;;;;20.10;14.25;;;17.30;75.50;;;;;;4977110;28;20203;-85
2021/09/17 00:55:10;;;;;;;20.15;15.20;;;17.30;75.40;;;;;;4977716;28;20184;-85
2021/09/17 00:57:36;;;;;;;23.88;14.60;;;17.40;75.20;;;;;;4978040;28;20219;-85
2021/09/17 01:00:05;;;;;;;23.50;14.68;;;17.30;75.20;;;;;;4979757;28;20655;-85
2021/09/17 01:02:31;;;;;;;23.15;16.85;;;17.30;75.40;;;;;;4977883;28;20672;-86
2021/09/17 01:04:58;;;;;;;22.50;15.20;;;17.20;75.30;;;;;;4960603;28;20215;-86
2021/09/17 01:07:24;;;;;;;18.52;13.68;;;17.30;75.50;;;;;;4975822;28;20639;-86
2021/09/17 01:09:51;;;;;;;23.77;16.57;;;17.30;75.50;;;;;;4975747;28;20198;-85
2021/09/17 01:12:17;;;;;;;20.42;15.10;;;17.20;75.60;;;;;;4976551;28;20542;-86
2021/09/17 01:14:42;;;;;;;22.77;16.70;;;17.30;75.60;;;;;;4975988;28;20180;-87
2021/09/17 01:17:08;;;;;;;26.60;17.57;;;17.20;75.30;;;;;;4976303;28;20212;-86
2021/09/17 01:19:36;;;;;;;21.90;16.77;;;17.30;75.30;;;;;;4976341;28;20927;-86
2021/09/17 01:22:07;;;;;;;22.10;14.77;;;17.30;75.00;;;;;;4976471;28;20447;-86
2021/09/17 01:24:35;;;;;;;20.15;16.63;;;17.20;75.00;;;;;;4977280;28;20258;-86
2021/09/17 01:27:01;;;;;;;23.95;17.95;;;17.20;75.20;;;;;;4990037;28;20179;-85
2021/09/17 01:29:27;;;;;;;28.07;19.57;;;17.10;75.30;;;;;;4995961;28;20186;-86
2021/09/17 01:31:53;;;;;;;32.00;18.92;;;17.10;75.40;;;;;;4997472;28;20439;-86
2021/09/17 01:34:22;;;;;;;26.55;18.98;;;17.00;75.50;;;;;;4996883;28;20246;-85
2021/09/17 01:36:50;;;;;;;25.05;18.90;;;17.10;75.70;;;;;;4996464;28;20234;-86
2021/09/17 01:39:17;;;;;;;27.05;19.33;;;17.00;75.70;;;;;;4994343;28;20239;-86
2021/09/17 01:41:44;;;;;;;30.73;18.75;;;17.00;75.90;;;;;;4989051;28;20218;-86
2021/09/17 01:44:09;;;;;;;27.67;19.55;;;17.10;76.00;;;;;;4988531;28;20222;-86
2021/09/17 01:46:35;;;;;;;25.27;18.27;;;17.10;76.00;;;;;;4976693;28;20176;-86
2021/09/17 01:49:01;;;;;;;27.07;18.40;;;17.00;75.90;;;;;;4977523;28;20175;-86
2021/09/17 01:51:27;;;;;;;23.93;16.17;;;17.00;76.00;;;;;;4977211;28;20494;-87
2021/09/17 01:53:54;;;;;;;24.50;16.47;;;17.00;76.00;;;;;;4976933;28;20981;-86
2021/09/17 01:56:23;;;;;;;24.60;16.55;;;17.10;76.00;;;;;;4975511;28;20254;-86
2021/09/17 01:58:50;;;;;;;20.58;15.73;;;17.10;75.80;;;;;;4975280;28;20235;-87
2021/09/17 02:01:16;;;;;;;25.05;15.50;;;17.10;75.60;;;;;;4976216;28;20203;-88
2021/09/17 02:03:41;;;;;;;27.45;17.70;;;17.10;75.40;;;;;;4977710;28;20196;-87
2021/09/17 02:06:07;;;;;;;23.87;17.17;;;17.10;75.30;;;;;;4977401;28;20188;-87
2021/09/17 02:08:33;;;;;;;21.70;14.73;;;16.90;75.30;;;;;;4978653;28;20234;-87
2021/09/17 02:10:58;;;;;;;25.00;18.70;;;17.00;75.30;;;;;;4974568;28;20539;-87
2021/09/17 02:13:24;;;;;;;25.60;17.57;;;16.90;76.00;;;;;;4975603;28;20675;-86
2021/09/17 02:15:52;;;;;;;24.70;17.17;;;16.80;75.10;;;;;;4974364;28;20223;-86
2021/09/17 02:18:19;;;;;;;25.42;18.50;;;16.70;75.60;;;;;;4974878;28;20424;-87
2021/09/17 02:20:46;;;;;;;25.58;17.98;;;16.60;76.00;;;;;;4974893;28;20351;-87
2021/09/17 02:23:13;;;;;;;27.20;17.85;;;16.50;76.40;;;;;;4973596;28;20218;-87
2021/09/17 02:25:38;;;;;;;26.50;18.42;;;16.50;76.70;;;;;;4975443;28;20262;-87
2021/09/17 02:28:04;;;;;;;24.00;17.67;;;16.40;76.80;;;;;;4974446;28;20557;-88
2021/09/17 02:30:30;;;;;;;27.73;19.42;;;16.20;77.70;;;;;;4974679;28;20489;-88
2021/09/17 02:32:56;;;;;;;30.07;20.63;;;16.30;78.80;;;;;;4975893;28;20250;-87
2021/09/17 02:35:22;;;;;;;28.37;20.23;;;16.30;78.90;;;;;;4975115;28;20230;-86
2021/09/17 02:37:48;;;;;;;32.27;21.40;;;16.10;79.10;;;;;;4978127;28;20542;-87
2021/09/17 02:40:16;;;;;;;38.45;22.15;;;16.00;79.60;;;;;;4976028;28;20628;-87
2021/09/17 02:42:43;;;;;;;36.97;22.83;;;16.00;79.90;;;;;;4974577;28;20553;-86
2021/09/17 02:45:11;;;;;;;33.20;22.95;;;16.00;80.10;;;;;;4976266;28;20182;-86
2021/09/17 02:47:37;;;;;;;34.17;24.35;;;16.20;79.60;;;;;;4977648;28;20517;-87
2021/09/17 02:50:04;;;;;;;35.40;23.10;;;16.20;79.00;;;;;;4975898;28;20190;-87
2021/09/17 02:52:30;;;;;;;35.13;22.83;;;16.20;78.70;;;;;;4976056;28;20278;-86
2021/09/17 02:54:55;;;;;;;29.80;21.80;;;16.30;78.40;;;;;;4977833;28;20651;-85
2021/09/17 02:57:21;;;;;;;35.10;23.80;;;16.30;78.20;;;;;;4990342;28;20239;-85
2021/09/17 02:59:47;;;;;;;33.93;23.30;;;16.20;78.30;;;;;;4993297;28;20411;-85
2021/09/17 03:02:14;;;;;;;29.37;22.73;;;16.30;78.70;;;;;;4993802;28;20184;-86
2021/09/17 03:04:39;;;;;;;32.10;23.08;;;16.20;78.30;;;;;;4994574;28;20423;-86
2021/09/17 03:07:05;;;;;;;33.70;21.73;;;16.30;78.40;;;;;;4993120;28;20180;-85
2021/09/17 03:09:31;;;;;;;35.27;23.10;;;16.30;78.10;;;;;;4994610;28;20175;-86
2021/09/17 03:11:57;;;;;;;34.27;22.63;;;16.20;77.80;;;;;;4993840;28;20423;-86
2021/09/17 03:14:23;;;;;;;33.93;22.97;;;16.00;78.20;;;;;;4993456;28;20473;-86
2021/09/17 03:16:49;;;;;;;33.73;22.73;;;16.00;78.50;;;;;;4993685;28;20211;-86
2021/09/17 03:19:15;;;;;;;36.65;24.15;;;16.10;78.70;;;;;;4994185;28;20184;-86
2021/09/17 03:21:41;;;;;;;37.22;23.50;;;16.10;78.60;;;;;;4995697;28;20203;-87
2021/09/17 03:24:07;;;;;;;38.77;24.10;;;16.10;78.30;;;;;;4988924;28;20199;-86
2021/09/17 03:26:33;;;;;;;34.37;23.37;;;16.00;78.60;;;;;;4976955;28;20513;-87
2021/09/17 03:28:59;;;;;;;33.97;24.63;;;16.10;79.00;;;;;;4974665;28;20180;-87
2021/09/17 03:31:26;;;;;;;38.78;26.58;;;16.10;78.70;;;;;;4973126;28;20776;-88
2021/09/17 03:33:52;;;;;;;38.03;25.85;;;16.10;78.30;;;;;;4974346;28;20220;-87
2021/09/17 03:36:18;;;;;;;40.90;27.60;;;16.20;78.30;;;;;;4960910;28;20208;-87
2021/09/17 03:38:43;;;;;;;41.27;28.00;;;16.20;78.10;;;;;;4980404;28;20412;-87
2021/09/17 03:41:09;;;;;;;45.30;28.80;;;16.20;78.10;;;;;;4977868;28;20176;-87
2021/09/17 03:43:35;;;;;;;41.10;28.30;;;16.20;78.20;;;;;;4974727;28;20435;-86
2021/09/17 03:46:01;;;;;;;41.93;28.03;;;16.20;78.20;;;;;;4977109;28;20184;-86
2021/09/17 03:48:28;;;;;;;42.20;28.30;;;16.20;78.30;;;;;;4974252;28;20184;-86
2021/09/17 03:50:54;;;;;;;47.40;30.13;;;16.20;78.30;;;;;;4976516;28;20183;-87
2021/09/17 03:53:19;;;;;;;38.97;29.90;;;16.20;78.30;;;;;;4976382;28;20577;-87
2021/09/17 03:55:45;;;;;;;48.30;30.50;;;16.20;78.30;;;;;;4977347;28;20179;-87
2021/09/17 03:58:12;;;;;;;42.70;30.30;;;16.20;78.40;;;;;;4980475;28;20560;-87
2021/09/17 04:00:38;;;;;;;47.38;29.65;;;16.10;78.60;;;;;;4979300;28;20636;-88
2021/09/17 04:03:04;;;;;;;46.38;29.63;;;16.10;78.80;;;;;;4977558;28;20294;-88
2021/09/17 04:05:31;;;;;;;47.25;30.17;;;16.20;79.00;;;;;;4978040;28;20203;-88
2021/09/17 04:07:56;;;;;;;50.03;30.98;;;16.20;79.00;;;;;;4976741;28;20222;-88
2021/09/17 04:10:22;;;;;;;49.77;30.10;;;16.20;79.00;;;;;;4978502;28;20176;-88
2021/09/17 04:12:50;;;;;;;45.90;30.43;;;16.30;79.10;;;;;;4976599;28;20675;-87
2021/09/17 04:15:16;;;;;;;50.90;32.60;;;16.20;78.80;;;;;;4961354;28;20187;-88
2021/09/17 04:17:43;;;;;;;46.70;29.48;;;16.20;78.90;;;;;;4977978;28;20200;-88
2021/09/17 04:20:10;;;;;;;43.65;30.52;;;16.20;78.90;;;;;;4976444;28;20199;-88
2021/09/17 04:22:36;;;;;;;47.78;31.17;;;16.20;78.90;;;;;;4975887;28;20250;-88
2021/09/17 04:25:05;;;;;;;64.07;34.38;;;16.20;79.00;;;;;;4976665;28;20554;-87
2021/09/17 04:27:30;;;;;;;49.45;31.63;;;16.20;79.00;;;;;;4976649;28;20658;-88
2021/09/17 04:29:56;;;;;;;45.07;31.47;;;16.20;79.00;;;;;;4977390;28;20186;-88
2021/09/17 04:32:22;;;;;;;48.63;31.33;;;16.20;78.90;;;;;;4977346;28;20576;-88
2021/09/17 04:34:48;;;;;;;56.90;36.97;;;16.20;79.00;;;;;;4982193;28;20187;-88
2021/09/17 04:37:14;;;;;;;50.22;32.30;;;16.10;79.20;;;;;;4980365;28;20203;-88
2021/09/17 04:39:39;;;;;;;60.43;35.10;;;16.00;79.20;;;;;;4997693;28;20200;-86
2021/09/17 04:42:05;;;;;;;57.13;34.73;;;16.10;79.40;;;;;;4997977;28;20183;-85
2021/09/17 04:44:31;;;;;;;56.95;33.80;;;16.10;79.50;;;;;;5000148;28;20187;-87
2021/09/17 04:46:57;;;;;;;58.07;35.50;;;16.10;79.40;;;;;;4996645;28;20596;-87
2021/09/17 04:49:23;;;;;;;54.10;36.90;;;16.10;79.40;;;;;;4995407;28;20183;-87
2021/09/17 04:51:49;;;;;;;48.27;33.07;;;16.00;79.40;;;;;;4990558;28;20507;-86
2021/09/17 04:54:16;;;;;;;50.00;32.83;;;16.00;79.40;;;;;;4992606;28;20196;-86
2021/09/17 04:56:42;;;;;;;61.03;35.05;;;16.00;79.60;;;;;;4992873;28;20270;-85
2021/09/17 04:59:08;;;;;;;60.55;37.03;;;16.00;79.60;;;;;;4997753;28;20180;-85
2021/09/17 05:01:34;;;;;;;64.90;36.77;;;15.90;80.10;;;;;;4979051;28;20215;-86
2021/09/17 05:03:59;;;;;;;57.67;37.33;;;15.90;80.30;;;;;;4978310;28;20447;-87
2021/09/17 05:06:27;;;;;;;67.87;39.10;;;16.00;80.20;;;;;;4979846;28;20202;-86
2021/09/17 05:08:53;;;;;;;65.82;36.05;;;16.00;80.00;;;;;;4978519;28;20188;-86
2021/09/17 05:11:21;;;;;;;72.40;39.17;;;15.90;80.20;;;;;;4977727;28;20588;-86
2021/09/17 05:13:47;;;;;;;67.20;39.72;;;15.90;80.50;;;;;;4961022;28;20572;-86
2021/09/17 05:16:13;;;;;;;60.20;38.47;;;15.90;80.40;;;;;;4977370;28;20207;-86
2021/09/17 05:18:39;;;;;;;72.28;40.97;;;15.90;80.40;;;;;;4977198;28;20176;-86
2021/09/17 05:21:04;;;;;;;66.30;40.13;;;16.00;80.40;;;;;;4976989;28;20179;-86
2021/09/17 05:23:30;;;;;;;57.07;37.37;;;16.00;80.30;;;;;;4979252;28;20675;-86
2021/09/17 05:25:56;;;;;;;72.93;38.23;;;16.00;80.20;;;;;;4978467;28;20521;-86
2021/09/17 05:28:22;;;;;;;62.13;37.43;;;16.00;80.10;;;;;;4976178;28;20180;-86
2021/09/17 05:30:47;;;;;;;66.63;38.70;;;16.00;80.20;;;;;;4975738;28;20584;-86
2021/09/17 05:33:13;;;;;;;65.40;37.43;;;16.00;80.10;;;;;;4974971;28;20215;-86
2021/09/17 05:35:39;;;;;;;62.63;39.03;;;16.10;79.80;;;;;;4975597;28;20415;-86
2021/09/17 05:38:04;;;;;;;67.57;38.87;;;16.20;79.70;;;;;;4976009;28;20234;-87
2021/09/17 05:40:30;;;;;;;62.93;37.97;;;16.10;79.60;;;;;;4977789;28;20219;-87
2021/09/17 05:42:56;;;;;;;66.63;37.87;;;16.20;79.50;;;;;;4960174;28;20204;-86
2021/09/17 05:45:22;;;;;;;66.87;38.87;;;16.20;79.30;;;;;;4959914;28;20806;-87
2021/09/17 05:47:48;;;;;;;76.07;38.67;;;16.10;79.60;;;;;;4960616;28;20278;-87
2021/09/17 05:50:13;;;;;;;66.17;39.30;;;16.00;79.80;;;;;;4961552;28;20435;-86
2021/09/17 05:52:39;;;;;;;61.77;39.10;;;16.10;80.00;;;;;;4959440;28;20204;-86
2021/09/17 05:55:06;;;;;;;66.70;39.00;;;16.30;80.00;;;;;;4960628;28;20458;-86
2021/09/17 05:57:32;;;;;;;71.18;39.70;;;16.30;80.10;;;;;;4961585;28;20455;-86
2021/09/17 05:59:58;;;;;;;78.53;41.13;;;16.30;80.20;;;;;;4982000;28;20175;-85
2021/09/17 06:02:25;;;;;;;65.93;40.23;;;16.40;80.50;;;;;;4963260;28;20285;-86
2021/09/17 06:04:51;;;;;;;60.10;37.80;;;16.50;80.80;;;;;;4968503;28;20176;-86
2021/09/17 06:07:16;;;;;;;64.30;36.90;;;16.60;80.70;;;;;;4966786;28;20283;-86
2021/09/17 06:09:42;;;;;;;59.13;35.20;;;16.80;80.70;;;;;;4967151;28;20554;-86
2021/09/17 06:12:08;;;;;;;61.60;37.90;;;16.90;80.30;;;;;;4966310;28;20183;-86
2021/09/17 06:14:33;;;;;;;59.10;35.57;;;17.00;80.00;;;;;;4966926;28;20416;-86
2021/09/17 06:17:00;;;;;;;62.93;35.83;;;17.30;79.60;;;;;;4968717;28;20200;-86
2021/09/17 06:19:26;;;;;;;52.83;33.50;;;17.30;79.10;;;;;;4968353;28;20179;-86
2021/09/17 06:21:51;;;;;;;62.43;36.47;;;17.40;78.60;;;;;;4970366;28;20278;-86
2021/09/17 06:24:17;;;;;;;60.00;32.60;;;17.50;78.50;;;;;;4977133;28;20995;-86
2021/09/17 06:26:43;;;;;;;61.63;35.83;;;17.50;78.10;;;;;;4960807;28;20183;-85
2021/09/17 06:29:09;;;;;;;50.90;31.97;;;17.60;77.90;;;;;;4962430;28;20570;-85
2021/09/17 06:31:36;;;;;;;65.13;36.80;;;17.50;77.60;;;;;;4962188;28;20415;-86
2021/09/17 06:34:05;;;;;;;59.55;34.97;;;17.60;77.60;;;;;;4979667;28;20207;-86
2021/09/17 06:36:31;;;;;;;220.88;53.30;;;17.70;77.40;;;;;;4968259;28;20282;-85
2021/09/17 06:39:00;;;;;;;91.03;38.63;;;17.80;76.90;;;;;;4978394;28;20214;-86
2021/09/17 06:41:27;;;;;;;62.10;37.13;;;17.90;76.50;;;;;;4977500;28;20180;-85
2021/09/17 06:43:53;;;;;;;59.85;35.55;;;18.10;75.80;;;;;;4977829;28;20267;-85
2021/09/17 06:46:19;;;;;;;62.57;37.40;;;18.10;75.10;;;;;;4978767;28;20183;-85
2021/09/17 06:48:44;;;;;;;66.27;35.13;;;18.10;75.00;;;;;;4984509;28;20284;-86
2021/09/17 06:51:10;;;;;;;132.80;46.47;;;18.10;75.00;;;;;;4987856;28;20415;-86
2021/09/17 06:53:36;;;;;;;142.10;48.57;;;18.00;75.20;;;;;;4985742;28;20207;-86
2021/09/17 06:56:02;;;;;;;73.63;39.27;;;18.00;75.80;;;;;;4981170;28;20207;-86
2021/09/17 06:58:34;;;;;;;66.72;38.78;;;18.20;75.20;;;;;;4980361;28;20195;-86
2021/09/17 07:01:00;;;;;;;66.63;38.95;;;18.20;74.80;;;;;;4978844;28;20608;-86
2021/09/17 07:03:27;;;;;;;65.25;38.15;;;18.10;75.10;;;;;;4978694;28;20231;-86
2021/09/17 07:05:53;;;;;;;58.42;37.00;;;18.10;75.40;;;;;;4978720;28;20214;-86
2021/09/17 07:08:19;;;;;;;63.30;35.75;;;18.10;75.50;;;;;;4979318;28;20643;-85
2021/09/17 07:10:46;;;;;;;347.23;74.07;;;18.10;75.80;;;;;;4979205;28;20238;-86
2021/09/17 07:13:12;;;;;;;167.82;50.45;;;18.00;76.30;;;;;;4980442;28;20443;-86
2021/09/17 07:15:38;;;;;;;68.77;38.30;;;18.00;76.80;;;;;;4982004;28;20557;-86
2021/09/17 07:18:07;;;;;;;64.00;35.50;;;18.00;77.20;;;;;;4983292;28;20431;-86
2021/09/17 07:20:35;;;;;;;64.05;37.88;;;18.00;77.40;;;;;;4981866;28;20290;-86
2021/09/17 07:23:03;;;;;;;67.22;37.60;;;18.00;77.50;;;;;;4981457;28;20203;-86
2021/09/17 07:25:30;;;;;;;60.58;33.97;;;17.90;77.80;;;;;;4982909;28;20687;-87
2021/09/17 07:27:55;;;;;;;60.42;34.78;;;17.80;78.20;;;;;;4949742;28;20184;-87
2021/09/17 07:30:22;;;;;;;64.50;33.97;;;17.80;78.50;;;;;;4983165;28;20178;-86
2021/09/17 07:32:48;;;;;;;65.65;38.83;;;17.90;78.50;;;;;;4964707;28;20237;-86
2021/09/17 07:35:15;;;;;;;65.15;37.45;;;17.90;78.50;;;;;;4966060;28;20662;-87
2021/09/17 07:37:42;;;;;;;60.55;35.67;;;17.90;78.50;;;;;;4981794;28;20227;-87
2021/09/17 07:40:13;;;;;;;61.17;34.88;;;17.90;78.80;;;;;;4981772;28;20180;-86
2021/09/17 07:42:39;;;;;;;67.45;36.40;;;17.90;78.90;;;;;;4950572;28;20552;-86
2021/09/17 07:45:05;;;;;;;58.67;32.73;;;17.90;79.00;;;;;;4967303;28;20183;-86
2021/09/17 07:47:32;;;;;;;58.75;35.60;;;18.00;78.90;;;;;;4969288;28;20818;-86
2021/09/17 07:49:58;;;;;;;61.05;35.42;;;18.10;78.90;;;;;;4968190;28;20226;-87
2021/09/17 07:52:24;;;;;;;175.83;45.73;;;18.10;78.70;;;;;;4984982;28;20668;-86
2021/09/17 07:54:52;;;;;;;70.47;35.53;;;18.30;78.60;;;;;;4979774;28;20419;-88
2021/09/17 07:57:17;;;;;;;74.93;35.05;;;18.30;78.40;;;;;;4961690;28;20200;-88
2021/09/17 07:59:43;;;;;;;53.80;33.00;;;18.40;78.30;;;;;;4961426;28;20191;-88
2021/09/17 08:02:09;;;;;;;58.37;34.17;;;18.50;78.10;;;;;;4960541;28;20263;-88
2021/09/17 08:04:38;;;;;;;59.10;34.33;;;18.40;78.00;;;;;;4963607;28;20430;-88
2021/09/17 08:07:05;;;;;;;62.63;33.45;;;18.40;78.30;;;;;;4961407;28;20184;-88
2021/09/17 08:09:32;;;;;;;112.63;39.22;;;18.40;78.30;;;;;;4945396;28;20199;-88
2021/09/17 08:11:58;;;;;;;52.10;31.90;;;18.50;78.40;;;;;;4978877;28;20200;-88
2021/09/17 08:14:24;;;;;;;50.38;28.52;;;18.60;78.10;;;;;;4978857;28;20206;-87
2021/09/17 08:16:49;;;;;;;96.50;34.70;;;18.60;77.90;;;;;;4978572;28;20204;-87
2021/09/17 08:19:15;;;;;;;127.20;39.03;;;18.70;77.80;;;;;;4978906;28;20215;-87
2021/09/17 08:21:43;;;;;;;116.97;38.20;;;18.70;77.70;;;;;;4978027;28;20422;-87
2021/09/17 08:24:16;;;;;;;47.80;30.17;;;18.80;77.40;;;;;;4979603;28;20202;-87
2021/09/17 08:26:50;;;;;;;41.67;26.08;;;18.90;77.00;;;;;;4978599;28;20494;-87
2021/09/17 08:29:16;;;;;;;45.05;26.33;;;18.90;76.70;;;;;;4960959;28;20178;-87
2021/09/17 08:31:42;;;;;;;45.95;27.40;;;18.90;77.10;;;;;;4960142;28;20234;-86
2021/09/17 08:34:09;;;;;;;117.63;34.30;;;18.90;76.20;;;;;;4960869;28;20270;-87
2021/09/17 08:36:35;;;;;;;43.00;22.00;;;18.90;76.00;;;;;;4967310;28;20277;-88
2021/09/17 08:39:03;;;;;;;35.95;22.63;;;18.80;75.70;;;;;;4976297;28;20191;-87
2021/09/17 08:41:30;;;;;;;35.85;22.20;;;18.80;75.80;;;;;;4977564;28;20191;-88
2021/09/17 08:43:55;;;;;;;34.72;20.77;;;19.00;75.80;;;;;;4976629;28;20199;-86
2021/09/17 08:46:21;;;;;;;29.00;21.00;;;19.10;75.50;;;;;;4976585;28;20184;-87
2021/09/17 08:48:51;;;;;;;32.10;19.60;;;19.20;74.50;;;;;;4979807;28;20179;-87
2021/09/17 08:51:20;;;;;;;28.85;19.02;;;19.30;74.50;;;;;;4982860;28;20560;-86
2021/09/17 08:53:47;;;;;;;23.42;18.25;;;19.50;73.70;;;;;;4964403;28;20204;-87
2021/09/17 08:56:15;;;;;;;51.33;20.50;;;19.60;72.10;;;;;;4980643;28;20218;-86
2021/09/17 08:58:50;;;;;;;38.85;18.20;;;19.60;72.00;;;;;;4965872;28;20188;-87
2021/09/17 09:01:26;;;;;;;25.98;17.50;;;19.70;71.80;;;;;;4976441;28;20202;-88
2021/09/17 09:03:59;;;;;;;30.25;16.58;;;19.80;71.80;;;;;;4961209;28;20556;-87
2021/09/17 09:06:25;;;;;;;21.35;15.32;;;19.90;71.50;;;;;;4976913;28;20592;-87
2021/09/17 09:08:51;;;;;;;24.77;14.75;;;20.00;70.90;;;;;;4978851;28;20184;-87
2021/09/17 09:11:25;;;;;;;16.50;13.30;;;20.10;70.50;;;;;;4977449;28;20520;-86
2021/09/17 09:14:13;;;;;;;31.98;15.25;;;20.20;70.10;;;;;;4977508;28;20226;-87
2021/09/17 09:16:44;;;;;;;23.30;14.73;;;20.10;70.20;;;;;;4977680;28;20261;-87
2021/09/17 09:19:27;;;;;;;20.65;16.83;;;20.10;70.70;;;;;;4978955;28;20180;-88
2021/09/17 09:22:02;;;;;;;33.42;16.67;;;19.90;69.90;;;;;;4975244;28;20523;-88
2021/09/17 09:24:29;;;;;;;26.33;16.90;;;19.90;70.10;;;;;;4975742;28;20778;-88
2021/09/17 09:27:16;;;;;;;26.10;15.07;;;20.10;69.80;;;;;;4976706;28;20192;-86
2021/09/17 09:29:44;;;;;;;15.80;10.88;;;20.20;69.50;;;;;;4980053;28;20176;-86
2021/09/17 09:32:42;;;;;;;14.50;10.48;;;20.30;69.30;;;;;;4980043;28;20180;-85
2021/09/17 09:35:09;;;;;;;16.13;9.77;;;20.40;68.50;;;;;;4930903;28;20192;-86
2021/09/17 09:37:38;;;;;;;12.65;9.70;;;20.20;67.40;;;;;;4978827;28;20294;-86
2021/09/17 09:40:07;;;;;;;14.13;9.98;;;20.10;67.80;;;;;;4978491;28;20179;-86
2021/09/17 09:42:41;;;;;;;16.40;8.98;;;19.90;67.80;;;;;;4977903;28;20254;-86
2021/09/17 09:45:24;;;;;;;11.38;9.10;;;19.90;67.70;;;;;;4978134;28;20278;-87
2021/09/17 09:47:52;;;;;;;11.85;7.03;;;19.90;67.60;;;;;;4980973;28;20196;-85
2021/09/17 09:50:24;;;;;;;8.10;7.30;;;19.90;67.30;;;;;;4981546;28;20231;-86
2021/09/17 09:53:01;;;;;;;9.55;7.15;;;19.90;66.90;;;;;;4982170;28;20195;-85
2021/09/17 09:55:27;;;;;;;8.82;7.93;;;19.90;67.10;;;;;;4981276;28;20188;-85
2021/09/17 09:57:56;;;;;;;9.10;7.40;;;19.80;67.10;;;;;;4982280;28;20222;-85
2021/09/17 10:00:23;;;;;;;10.40;8.07;;;19.90;67.50;;;;;;4982300;28;20269;-85
2021/09/17 10:02:49;;;;;;;11.68;7.63;;;19.70;67.60;;;;;;4982333;28;20196;-84
2021/09/17 10:05:18;;;;;;;11.20;7.60;;;20.10;67.50;;;;;;4966096;28;20528;-86
2021/09/17 10:07:44;;;;;;;10.73;6.40;;;20.40;66.50;;;;;;4971654;28;20419;-86
2021/09/17 10:10:12;;;;;;;9.05;7.50;;;20.70;65.80;;;;;;4950765;28;20202;-86
2021/09/17 10:12:40;;;;;;;16.05;7.18;;;20.70;65.70;;;;;;4950239;28;20208;-86
2021/09/17 10:15:09;;;;;;;10.85;7.70;;;20.90;65.60;;;;;;4982559;28;20183;-86
2021/09/17 10:17:37;;;;;;;11.95;7.50;;;20.80;65.00;;;;;;4982975;28;20223;-85
2021/09/17 10:20:09;;;;;;;10.45;7.35;;;20.90;64.70;;;;;;4964868;28;20183;-85
2021/09/17 10:22:44;;;;;;;9.75;7.15;;;21.00;64.30;;;;;;4947673;28;20668;-86
2021/09/17 10:25:15;;;;;;;12.43;9.03;;;21.10;64.30;;;;;;4982649;28;20187;-86
2021/09/17 10:27:47;;;;;;;17.85;8.07;;;21.20;64.10;;;;;;4981557;28;20438;-86
2021/09/17 10:30:16;;;;;;;11.33;8.23;;;21.20;64.00;;;;;;4982740;28;20164;-85
2021/09/17 10:32:50;;;;;;;12.30;8.70;;;21.30;63.20;;;;;;4981671;28;20474;-83
2021/09/17 10:35:22;;;;;;;12.00;9.67;;;21.40;63.40;;;;;;4982714;28;20860;-85
2021/09/17 10:38:05;;;;;;;11.73;8.97;;;21.30;63.50;;;;;;4980810;28;20669;-86
2021/09/17 10:40:41;;;;;;;12.53;10.70;;;21.50;63.60;;;;;;4981276;28;20845;-85
2021/09/17 10:43:10;;;;;;;11.87;8.33;;;21.70;62.40;;;;;;4980244;28;20482;-85
2021/09/17 10:45:49;;;;;;;13.80;9.40;;;21.80;61.90;;;;;;4981059;28;20946;-86
2021/09/17 10:48:17;;;;;;;11.90;8.50;;;21.90;61.90;;;;;;4980581;28;20834;-86
2021/09/17 10:50:50;;;;;;;10.10;8.60;;;22.10;61.50;;;;;;4981914;28;20415;-86
2021/09/17 10:53:55;;;;;;;12.80;8.30;;;22.20;61.00;;;;;;4979517;28;20435;-86
2021/09/17 10:56:21;;;;;;;11.50;8.80;;;22.10;61.40;;;;;;4980673;28;20475;-85
2021/09/17 10:59:14;;;;;;;21.40;12.50;;;22.10;61.20;;;;;;4964938;28;20419;-85
2021/09/17 11:02:01;;;;;;;16.10;10.03;;;22.10;61.00;;;;;;4980457;28;20543;-85
2021/09/17 11:04:28;;;;;;;14.37;11.43;;;22.00;60.60;;;;;;4981512;28;20445;-86
2021/09/17 11:06:56;;;;;;;16.30;11.17;;;21.90;60.70;;;;;;4980734;28;20423;-85
2021/09/17 11:09:44;;;;;;;21.37;11.03;;;21.70;60.70;;;;;;4984848;28;20411;-86
2021/09/17 11:12:21;;;;;;;14.20;9.50;;;21.70;61.10;;;;;;4981527;28;20424;-86
2021/09/17 11:15:02;;;;;;;15.83;11.10;;;21.70;60.70;;;;;;4980301;28;20411;-85
2021/09/17 11:17:41;;;;;;;12.20;9.60;;;21.70;60.50;;;;;;4980438;28;20459;-86
2021/09/17 11:20:16;;;;;;;13.00;10.30;;;21.90;60.40;;;;;;4979487;28;20414;-84
2021/09/17 11:22:55;;;;;;;14.10;10.50;;;22.00;60.40;;;;;;4981666;28;20946;-85
2021/09/17 11:25:23;;;;;;;14.73;10.60;;;21.90;60.40;;;;;;4979885;28;20411;-86
2021/09/17 11:27:49;;;;;;;18.20;10.80;;;22.10;60.30;;;;;;4980735;28;20427;-86
2021/09/17 11:30:15;;;;;;;17.87;11.60;;;22.20;60.20;;;;;;4980252;28;20415;-85
2021/09/17 11:32:41;;;;;;;16.17;11.93;;;22.20;59.90;;;;;;4979645;28;20223;-86
2021/09/17 11:35:08;;;;;;;16.57;11.17;;;22.20;59.70;;;;;;4948284;28;20423;-85
2021/09/17 11:37:34;;;;;;;16.40;11.70;;;22.30;59.40;;;;;;4980902;28;20207;-85
2021/09/17 11:40:08;;;;;;;14.73;8.80;;;22.50;59.50;;;;;;4979642;28;20471;-86
2021/09/17 11:42:35;;;;;;;13.97;10.23;;;22.70;58.80;;;;;;4980043;28;20454;-85
2021/09/17 11:45:15;;;;;;;17.27;10.43;;;22.80;58.10;;;;;;4980199;28;21001;-86
2021/09/17 11:47:45;;;;;;;12.90;10.03;;;22.80;56.50;;;;;;4981476;28;20415;-86
2021/09/17 11:50:15;;;;;;;17.60;11.87;;;23.10;56.80;;;;;;4978951;28;20415;-85
2021/09/17 11:52:49;;;;;;;14.80;11.33;;;23.20;56.40;;;;;;4981273;28;20443;-86
2021/09/17 11:55:17;;;;;;;13.73;11.80;;;23.40;56.50;;;;;;4979086;28;20419;-86
2021/09/17 11:57:45;;;;;;;18.43;13.40;;;23.40;55.90;;;;;;4979472;28;20463;-87
2021/09/17 12:00:14;;;;;;;18.07;14.33;;;23.40;56.00;;;;;;4962292;28;20429;-85
2021/09/17 12:02:41;;;;;;;15.93;12.10;;;23.50;56.10;;;;;;4979015;28;20439;-85
2021/09/17 12:05:29;;;;;;;17.83;13.60;;;23.70;56.30;;;;;;4978768;28;20500;-85
2021/09/17 12:07:55;;;;;;;13.17;11.40;;;23.80;55.30;;;;;;4978212;28;20420;-85
2021/09/17 12:10:31;;;;;;;14.00;12.50;;;24.00;54.60;;;;;;4978871;28;20712;-85
2021/09/17 12:13:11;;;;;;;16.90;11.90;;;24.20;53.70;;;;;;4982054;28;20450;-86
2021/09/17 12:15:45;;;;;;;15.20;12.80;;;24.10;54.50;;;;;;4983907;28;20521;-86
2021/09/17 12:18:21;;;;;;;13.87;11.43;;;24.00;54.50;;;;;;4982096;28;20859;-86
2021/09/17 12:20:51;;;;;;;14.00;11.23;;;24.30;53.00;;;;;;4982610;28;20978;-86
2021/09/17 12:23:32;;;;;;;14.60;11.33;;;24.20;53.40;;;;;;4982425;28;20482;-85
2021/09/17 12:26:10;;;;;;;20.03;13.37;;;23.60;53.80;;;;;;4982594;28;20415;-86
2021/09/17 12:28:36;;;;;;;13.80;11.13;;;23.00;55.40;;;;;;4985256;28;20802;-85
2021/09/17 12:31:04;;;;;;;14.20;11.83;;;22.80;56.80;;;;;;4983041;28;20408;-86
2021/09/17 12:33:33;;;;;;;16.90;12.87;;;22.60;57.70;;;;;;4970412;28;20474;-86